sensor_id;sensor_type;location;lat;lon;timestamp;P1;durP1;ratioP1;P2;durP2;ratioP2
10410;SDS011;5251;52.112;8.606;2023-06-19T00:01:43;4.90;;;4.40;;
10410;SDS011;5251;52.112;8.606;2023-06-19T00:04:09;4.40;;;4.00;;
10410;SDS011;5251;52.112;8.606;2023-06-19T00:06:35;4.95;;;4.45;;
10410;SDS011;5251;52.112;8.606;2023-06-19T00:09:01;4.53;;;4.13;;
10410;SDS011;5251;52.112;8.606;2023-06-19T00:11:27;5.13;;;4.32;;
10410;SDS011;5251;52.112;8.606;2023-06-19T00:13:53;4.43;;;4.05;;
10410;SDS011;5251;52.112;8.606;2023-06-19T00:16:18;5.25;;;4.75;;
10410;SDS011;5251;52.112;8.606;2023-06-19T00:18:44;4.88;;;4.40;;
10410;SDS011;5251;52.112;8.606;2023-06-19T00:21:10;5.60;;;4.68;;
10410;SDS011;5251;52.112;8.606;2023-06-19T00:23:36;4.85;;;4.35;;
10410;SDS011;5251;52.112;8.606;2023-06-19T00:26:02;5.38;;;4.43;;
10410;SDS011;5251;52.112;8.606;2023-06-19T00:28:28;4.50;;;4.10;;
10410;SDS011;5251;52.112;8.606;2023-06-19T00:30:55;4.60;;;4.20;;
10410;SDS011;5251;52.112;8.606;2023-06-19T00:33:20;4.68;;;4.28;;
10410;SDS011;5251;52.112;8.606;2023-06-19T00:35:46;6.65;;;4.78;;
10410;SDS011;5251;52.112;8.606;2023-06-19T00:38:13;5.63;;;4.30;;
10410;SDS011;5251;52.112;8.606;2023-06-19T00:40:39;4.68;;;4.28;;
10410;SDS011;5251;52.112;8.606;2023-06-19T00:43:05;5.10;;;4.60;;
10410;SDS011;5251;52.112;8.606;2023-06-19T00:45:31;4.70;;;4.20;;
10410;SDS011;5251;52.112;8.606;2023-06-19T00:47:58;4.60;;;4.20;;
10410;SDS011;5251;52.112;8.606;2023-06-19T00:50:24;4.57;;;4.18;;
10410;SDS011;5251;52.112;8.606;2023-06-19T00:52:50;4.63;;;4.20;;
10410;SDS011;5251;52.112;8.606;2023-06-19T00:55:16;4.57;;;4.18;;
10410;SDS011;5251;52.112;8.606;2023-06-19T00:57:42;4.65;;;4.25;;
10410;SDS011;5251;52.112;8.606;2023-06-19T01:00:09;5.63;;;4.50;;
10410;SDS011;5251;52.112;8.606;2023-06-19T01:02:37;4.95;;;4.55;;
10410;SDS011;5251;52.112;8.606;2023-06-19T01:05:03;4.72;;;4.32;;
10410;SDS011;5251;52.112;8.606;2023-06-19T01:10:08;5.72;;;4.95;;
10410;SDS011;5251;52.112;8.606;2023-06-19T01:12:42;6.50;;;4.88;;
10410;SDS011;5251;52.112;8.606;2023-06-19T01:15:15;5.25;;;4.78;;
10410;SDS011;5251;52.112;8.606;2023-06-19T01:17:41;5.28;;;4.78;;
10410;SDS011;5251;52.112;8.606;2023-06-19T01:20:09;5.18;;;4.68;;
10410;SDS011;5251;52.112;8.606;2023-06-19T01:22:36;6.00;;;5.35;;
10410;SDS011;5251;52.112;8.606;2023-06-19T01:25:02;5.30;;;4.80;;
10410;SDS011;5251;52.112;8.606;2023-06-19T01:27:30;4.78;;;4.38;;
10410;SDS011;5251;52.112;8.606;2023-06-19T01:29:59;4.63;;;4.22;;
10410;SDS011;5251;52.112;8.606;2023-06-19T01:32:47;5.35;;;4.82;;
10410;SDS011;5251;52.112;8.606;2023-06-19T01:35:27;4.93;;;4.43;;
10410;SDS011;5251;52.112;8.606;2023-06-19T01:37:56;4.70;;;4.30;;
10410;SDS011;5251;52.112;8.606;2023-06-19T01:40:23;4.93;;;4.53;;
10410;SDS011;5251;52.112;8.606;2023-06-19T01:42:53;5.38;;;4.88;;
10410;SDS011;5251;52.112;8.606;2023-06-19T01:45:19;5.00;;;4.55;;
10410;SDS011;5251;52.112;8.606;2023-06-19T01:47:45;5.70;;;5.20;;
10410;SDS011;5251;52.112;8.606;2023-06-19T01:50:11;4.80;;;4.40;;
10410;SDS011;5251;52.112;8.606;2023-06-19T01:52:38;4.70;;;4.30;;
10410;SDS011;5251;52.112;8.606;2023-06-19T01:55:04;5.53;;;5.03;;
10410;SDS011;5251;52.112;8.606;2023-06-19T01:57:30;5.22;;;4.28;;
10410;SDS011;5251;52.112;8.606;2023-06-19T01:59:56;4.93;;;4.53;;
10410;SDS011;5251;52.112;8.606;2023-06-19T02:02:22;4.78;;;4.38;;
10410;SDS011;5251;52.112;8.606;2023-06-19T02:04:47;4.85;;;4.45;;
10410;SDS011;5251;52.112;8.606;2023-06-19T02:07:13;5.13;;;4.72;;
10410;SDS011;5251;52.112;8.606;2023-06-19T02:09:38;4.75;;;4.35;;
10410;SDS011;5251;52.112;8.606;2023-06-19T02:12:04;7.72;;;5.00;;
10410;SDS011;5251;52.112;8.606;2023-06-19T02:14:30;4.90;;;4.50;;
10410;SDS011;5251;52.112;8.606;2023-06-19T02:16:56;5.18;;;4.68;;
10410;SDS011;5251;52.112;8.606;2023-06-19T02:19:21;6.03;;;4.90;;
10410;SDS011;5251;52.112;8.606;2023-06-19T02:21:47;5.85;;;4.78;;
10410;SDS011;5251;52.112;8.606;2023-06-19T02:24:12;4.78;;;4.38;;
10410;SDS011;5251;52.112;8.606;2023-06-19T02:26:38;5.40;;;4.45;;
10410;SDS011;5251;52.112;8.606;2023-06-19T02:29:03;5.43;;;4.78;;
10410;SDS011;5251;52.112;8.606;2023-06-19T02:31:29;5.32;;;4.50;;
10410;SDS011;5251;52.112;8.606;2023-06-19T02:33:55;5.20;;;4.45;;
10410;SDS011;5251;52.112;8.606;2023-06-19T02:36:20;6.90;;;4.78;;
10410;SDS011;5251;52.112;8.606;2023-06-19T02:38:46;4.75;;;4.35;;
10410;SDS011;5251;52.112;8.606;2023-06-19T02:41:13;5.10;;;4.60;;
10410;SDS011;5251;52.112;8.606;2023-06-19T02:43:42;5.32;;;4.82;;
10410;SDS011;5251;52.112;8.606;2023-06-19T02:46:08;5.90;;;4.63;;
10410;SDS011;5251;52.112;8.606;2023-06-19T02:48:34;5.07;;;4.50;;
10410;SDS011;5251;52.112;8.606;2023-06-19T02:50:59;6.13;;;5.20;;
10410;SDS011;5251;52.112;8.606;2023-06-19T02:53:25;5.78;;;4.88;;
10410;SDS011;5251;52.112;8.606;2023-06-19T02:55:51;5.10;;;4.70;;
10410;SDS011;5251;52.112;8.606;2023-06-19T02:58:16;4.78;;;4.38;;
10410;SDS011;5251;52.112;8.606;2023-06-19T03:00:42;8.60;;;5.10;;
10410;SDS011;5251;52.112;8.606;2023-06-19T03:03:08;5.40;;;4.63;;
10410;SDS011;5251;52.112;8.606;2023-06-19T03:05:33;4.85;;;4.45;;
10410;SDS011;5251;52.112;8.606;2023-06-19T03:07:59;5.47;;;4.97;;
10410;SDS011;5251;52.112;8.606;2023-06-19T03:10:25;5.40;;;4.90;;
10410;SDS011;5251;52.112;8.606;2023-06-19T03:12:50;4.90;;;4.50;;
10410;SDS011;5251;52.112;8.606;2023-06-19T03:15:16;6.18;;;5.15;;
10410;SDS011;5251;52.112;8.606;2023-06-19T03:17:41;5.60;;;4.97;;
10410;SDS011;5251;52.112;8.606;2023-06-19T03:20:07;4.85;;;4.45;;
10410;SDS011;5251;52.112;8.606;2023-06-19T03:22:36;5.28;;;4.78;;
10410;SDS011;5251;52.112;8.606;2023-06-19T03:25:06;4.78;;;4.30;;
10410;SDS011;5251;52.112;8.606;2023-06-19T03:27:32;5.40;;;4.90;;
10410;SDS011;5251;52.112;8.606;2023-06-19T03:29:58;5.45;;;4.55;;
10410;SDS011;5251;52.112;8.606;2023-06-19T03:32:23;4.53;;;4.13;;
10410;SDS011;5251;52.112;8.606;2023-06-19T03:34:49;4.75;;;4.35;;
10410;SDS011;5251;52.112;8.606;2023-06-19T03:37:15;5.20;;;4.68;;
10410;SDS011;5251;52.112;8.606;2023-06-19T03:39:41;5.65;;;5.15;;
10410;SDS011;5251;52.112;8.606;2023-06-19T03:42:07;5.20;;;4.70;;
10410;SDS011;5251;52.112;8.606;2023-06-19T03:44:33;5.30;;;4.80;;
10410;SDS011;5251;52.112;8.606;2023-06-19T03:46:59;5.97;;;4.72;;
10410;SDS011;5251;52.112;8.606;2023-06-19T03:49:24;5.05;;;4.55;;
10410;SDS011;5251;52.112;8.606;2023-06-19T03:51:50;5.40;;;4.90;;
10410;SDS011;5251;52.112;8.606;2023-06-19T03:54:16;5.25;;;4.85;;
10410;SDS011;5251;52.112;8.606;2023-06-19T03:56:42;5.55;;;5.00;;
10410;SDS011;5251;52.112;8.606;2023-06-19T03:59:07;5.68;;;5.07;;
10410;SDS011;5251;52.112;8.606;2023-06-19T04:01:33;5.20;;;4.70;;
10410;SDS011;5251;52.112;8.606;2023-06-19T04:03:58;5.20;;;4.70;;
10410;SDS011;5251;52.112;8.606;2023-06-19T04:06:24;5.40;;;4.80;;
10410;SDS011;5251;52.112;8.606;2023-06-19T04:08:49;5.35;;;4.85;;
10410;SDS011;5251;52.112;8.606;2023-06-19T04:11:15;5.30;;;4.80;;
10410;SDS011;5251;52.112;8.606;2023-06-19T04:13:41;5.53;;;5.03;;
10410;SDS011;5251;52.112;8.606;2023-06-19T04:16:06;5.43;;;4.90;;
10410;SDS011;5251;52.112;8.606;2023-06-19T04:18:32;5.15;;;4.65;;
10410;SDS011;5251;52.112;8.606;2023-06-19T04:20:57;5.78;;;5.20;;
10410;SDS011;5251;52.112;8.606;2023-06-19T04:23:23;5.20;;;4.70;;
10410;SDS011;5251;52.112;8.606;2023-06-19T04:25:48;5.30;;;4.80;;
10410;SDS011;5251;52.112;8.606;2023-06-19T04:28:14;5.53;;;4.97;;
10410;SDS011;5251;52.112;8.606;2023-06-19T04:30:40;5.55;;;5.05;;
10410;SDS011;5251;52.112;8.606;2023-06-19T04:33:05;4.65;;;4.25;;
10410;SDS011;5251;52.112;8.606;2023-06-19T04:35:32;4.85;;;4.43;;
10410;SDS011;5251;52.112;8.606;2023-06-19T04:37:59;5.30;;;4.85;;
10410;SDS011;5251;52.112;8.606;2023-06-19T04:40:26;5.70;;;5.20;;
10410;SDS011;5251;52.112;8.606;2023-06-19T04:42:52;5.40;;;4.90;;
10410;SDS011;5251;52.112;8.606;2023-06-19T04:45:19;5.38;;;4.88;;
10410;SDS011;5251;52.112;8.606;2023-06-19T04:47:44;5.30;;;4.85;;
10410;SDS011;5251;52.112;8.606;2023-06-19T04:50:10;5.68;;;5.07;;
10410;SDS011;5251;52.112;8.606;2023-06-19T04:52:36;5.80;;;5.22;;
10410;SDS011;5251;52.112;8.606;2023-06-19T04:55:04;5.43;;;5.00;;
10410;SDS011;5251;52.112;8.606;2023-06-19T04:57:30;5.55;;;5.05;;
10410;SDS011;5251;52.112;8.606;2023-06-19T04:59:56;5.57;;;4.97;;
10410;SDS011;5251;52.112;8.606;2023-06-19T05:02:21;6.15;;;5.13;;
10410;SDS011;5251;52.112;8.606;2023-06-19T05:04:48;5.05;;;4.65;;
10410;SDS011;5251;52.112;8.606;2023-06-19T05:07:14;6.28;;;4.90;;
10410;SDS011;5251;52.112;8.606;2023-06-19T05:09:42;5.90;;;5.30;;
10410;SDS011;5251;52.112;8.606;2023-06-19T05:12:09;5.47;;;4.75;;
10410;SDS011;5251;52.112;8.606;2023-06-19T05:14:36;5.53;;;5.03;;
10410;SDS011;5251;52.112;8.606;2023-06-19T05:17:01;5.25;;;4.80;;
10410;SDS011;5251;52.112;8.606;2023-06-19T05:19:27;5.38;;;4.93;;
10410;SDS011;5251;52.112;8.606;2023-06-19T05:21:52;5.70;;;5.13;;
10410;SDS011;5251;52.112;8.606;2023-06-19T05:24:18;5.63;;;4.93;;
10410;SDS011;5251;52.112;8.606;2023-06-19T05:26:44;7.03;;;4.57;;
10410;SDS011;5251;52.112;8.606;2023-06-19T05:29:09;5.15;;;4.65;;
10410;SDS011;5251;52.112;8.606;2023-06-19T05:31:36;4.70;;;4.30;;
10410;SDS011;5251;52.112;8.606;2023-06-19T05:34:01;5.38;;;4.68;;
10410;SDS011;5251;52.112;8.606;2023-06-19T05:36:27;5.03;;;4.60;;
10410;SDS011;5251;52.112;8.606;2023-06-19T05:38:52;4.70;;;4.30;;
10410;SDS011;5251;52.112;8.606;2023-06-19T05:41:18;4.85;;;4.40;;
10410;SDS011;5251;52.112;8.606;2023-06-19T05:43:44;5.07;;;4.47;;
10410;SDS011;5251;52.112;8.606;2023-06-19T05:46:09;4.28;;;3.90;;
10410;SDS011;5251;52.112;8.606;2023-06-19T05:48:36;4.53;;;4.13;;
10410;SDS011;5251;52.112;8.606;2023-06-19T05:51:02;5.40;;;4.28;;
10410;SDS011;5251;52.112;8.606;2023-06-19T05:53:27;4.60;;;4.20;;
10410;SDS011;5251;52.112;8.606;2023-06-19T05:55:53;4.38;;;3.97;;
10410;SDS011;5251;52.112;8.606;2023-06-19T05:58:19;4.55;;;4.15;;
10410;SDS011;5251;52.112;8.606;2023-06-19T06:00:50;4.43;;;4.03;;
10410;SDS011;5251;52.112;8.606;2023-06-19T06:03:22;4.93;;;4.20;;
10410;SDS011;5251;52.112;8.606;2023-06-19T06:05:51;4.60;;;4.20;;
10410;SDS011;5251;52.112;8.606;2023-06-19T06:08:16;4.30;;;3.90;;
10410;SDS011;5251;52.112;8.606;2023-06-19T06:10:42;4.82;;;3.88;;
10410;SDS011;5251;52.112;8.606;2023-06-19T06:13:08;6.07;;;3.95;;
10410;SDS011;5251;52.112;8.606;2023-06-19T06:15:33;9.68;;;4.10;;
10410;SDS011;5251;52.112;8.606;2023-06-19T06:17:59;3.80;;;3.50;;
10410;SDS011;5251;52.112;8.606;2023-06-19T06:20:25;5.35;;;3.40;;
10410;SDS011;5251;52.112;8.606;2023-06-19T06:22:51;4.22;;;3.83;;
10410;SDS011;5251;52.112;8.606;2023-06-19T06:25:18;3.83;;;3.40;;
10410;SDS011;5251;52.112;8.606;2023-06-19T06:27:43;3.88;;;3.50;;
10410;SDS011;5251;52.112;8.606;2023-06-19T06:30:09;4.18;;;3.40;;
10410;SDS011;5251;52.112;8.606;2023-06-19T06:32:36;3.50;;;3.20;;
10410;SDS011;5251;52.112;8.606;2023-06-19T06:35:02;3.75;;;3.20;;
10410;SDS011;5251;52.112;8.606;2023-06-19T06:37:29;6.35;;;3.45;;
10410;SDS011;5251;52.112;8.606;2023-06-19T06:39:54;5.85;;;3.30;;
10410;SDS011;5251;52.112;8.606;2023-06-19T06:42:20;3.53;;;3.22;;
10410;SDS011;5251;52.112;8.606;2023-06-19T06:44:46;3.45;;;3.15;;
10410;SDS011;5251;52.112;8.606;2023-06-19T06:47:11;3.17;;;2.88;;
10410;SDS011;5251;52.112;8.606;2023-06-19T06:49:37;3.42;;;3.15;;
10410;SDS011;5251;52.112;8.606;2023-06-19T06:52:03;3.10;;;2.80;;
10410;SDS011;5251;52.112;8.606;2023-06-19T06:54:29;3.20;;;2.90;;
10410;SDS011;5251;52.112;8.606;2023-06-19T06:56:55;2.92;;;2.72;;
10410;SDS011;5251;52.112;8.606;2023-06-19T06:59:23;3.38;;;3.08;;
10410;SDS011;5251;52.112;8.606;2023-06-19T07:01:52;3.00;;;2.70;;
10410;SDS011;5251;52.112;8.606;2023-06-19T07:04:19;3.15;;;2.85;;
10410;SDS011;5251;52.112;8.606;2023-06-19T07:06:44;2.85;;;2.65;;
10410;SDS011;5251;52.112;8.606;2023-06-19T07:09:11;3.00;;;2.80;;
10410;SDS011;5251;52.112;8.606;2023-06-19T07:11:36;3.30;;;2.70;;
10410;SDS011;5251;52.112;8.606;2023-06-19T07:14:02;3.92;;;2.50;;
10410;SDS011;5251;52.112;8.606;2023-06-19T07:16:28;3.10;;;2.80;;
10410;SDS011;5251;52.112;8.606;2023-06-19T07:18:54;2.97;;;2.67;;
10410;SDS011;5251;52.112;8.606;2023-06-19T07:21:19;3.45;;;3.03;;
10410;SDS011;5251;52.112;8.606;2023-06-19T07:23:45;2.88;;;2.58;;
10410;SDS011;5251;52.112;8.606;2023-06-19T07:26:13;2.78;;;2.50;;
10410;SDS011;5251;52.112;8.606;2023-06-19T07:28:39;3.15;;;2.60;;
10410;SDS011;5251;52.112;8.606;2023-06-19T07:31:05;2.75;;;2.55;;
10410;SDS011;5251;52.112;8.606;2023-06-19T07:33:31;3.00;;;2.78;;
10410;SDS011;5251;52.112;8.606;2023-06-19T07:35:57;2.42;;;2.22;;
10410;SDS011;5251;52.112;8.606;2023-06-19T07:38:22;3.10;;;2.45;;
10410;SDS011;5251;52.112;8.606;2023-06-19T07:40:48;14.27;;;3.53;;
10410;SDS011;5251;52.112;8.606;2023-06-19T07:43:14;2.30;;;2.13;;
10410;SDS011;5251;52.112;8.606;2023-06-19T07:45:40;2.60;;;2.40;;
10410;SDS011;5251;52.112;8.606;2023-06-19T07:48:05;4.93;;;2.60;;
10410;SDS011;5251;52.112;8.606;2023-06-19T07:50:31;3.05;;;2.75;;
10410;SDS011;5251;52.112;8.606;2023-06-19T07:52:57;2.70;;;2.50;;
10410;SDS011;5251;52.112;8.606;2023-06-19T07:55:23;2.80;;;2.60;;
10410;SDS011;5251;52.112;8.606;2023-06-19T07:57:48;2.40;;;2.20;;
10410;SDS011;5251;52.112;8.606;2023-06-19T08:00:14;2.53;;;2.30;;
10410;SDS011;5251;52.112;8.606;2023-06-19T08:02:40;2.50;;;2.30;;
10410;SDS011;5251;52.112;8.606;2023-06-19T08:05:07;2.45;;;2.25;;
10410;SDS011;5251;52.112;8.606;2023-06-19T08:07:33;3.55;;;2.35;;
10410;SDS011;5251;52.112;8.606;2023-06-19T08:10:02;2.38;;;2.17;;
10410;SDS011;5251;52.112;8.606;2023-06-19T08:12:31;2.33;;;2.13;;
10410;SDS011;5251;52.112;8.606;2023-06-19T08:14:56;2.92;;;2.10;;
10410;SDS011;5251;52.112;8.606;2023-06-19T08:17:22;2.33;;;2.13;;
10410;SDS011;5251;52.112;8.606;2023-06-19T08:19:47;2.45;;;1.90;;
10410;SDS011;5251;52.112;8.606;2023-06-19T08:22:13;3.13;;;2.10;;
10410;SDS011;5251;52.112;8.606;2023-06-19T08:24:38;2.40;;;1.95;;
10410;SDS011;5251;52.112;8.606;2023-06-19T08:27:05;2.30;;;2.10;;
10410;SDS011;5251;52.112;8.606;2023-06-19T08:29:31;2.30;;;2.10;;
10410;SDS011;5251;52.112;8.606;2023-06-19T08:31:57;2.13;;;2.00;;
10410;SDS011;5251;52.112;8.606;2023-06-19T08:34:22;2.30;;;2.10;;
10410;SDS011;5251;52.112;8.606;2023-06-19T08:36:48;2.40;;;2.17;;
10410;SDS011;5251;52.112;8.606;2023-06-19T08:39:14;2.55;;;2.35;;
10410;SDS011;5251;52.112;8.606;2023-06-19T08:41:39;2.95;;;2.40;;
10410;SDS011;5251;52.112;8.606;2023-06-19T08:44:06;2.72;;;2.20;;
10410;SDS011;5251;52.112;8.606;2023-06-19T08:46:32;2.60;;;2.40;;
10410;SDS011;5251;52.112;8.606;2023-06-19T08:48:59;2.70;;;2.50;;
10410;SDS011;5251;52.112;8.606;2023-06-19T08:51:26;2.40;;;2.20;;
10410;SDS011;5251;52.112;8.606;2023-06-19T08:53:56;2.60;;;2.40;;
10410;SDS011;5251;52.112;8.606;2023-06-19T08:56:26;2.88;;;2.45;;
10410;SDS011;5251;52.112;8.606;2023-06-19T08:58:51;2.67;;;2.20;;
10410;SDS011;5251;52.112;8.606;2023-06-19T09:01:17;2.72;;;2.30;;
10410;SDS011;5251;52.112;8.606;2023-06-19T09:03:44;3.25;;;2.65;;
10410;SDS011;5251;52.112;8.606;2023-06-19T09:06:11;3.00;;;2.70;;
10410;SDS011;5251;52.112;8.606;2023-06-19T09:08:41;2.78;;;2.53;;
10410;SDS011;5251;52.112;8.606;2023-06-19T09:11:06;3.17;;;2.60;;
10410;SDS011;5251;52.112;8.606;2023-06-19T09:13:32;2.67;;;2.45;;
10410;SDS011;5251;52.112;8.606;2023-06-19T09:16:07;2.85;;;2.42;;
10410;SDS011;5251;52.112;8.606;2023-06-19T09:18:43;2.90;;;2.67;;
10410;SDS011;5251;52.112;8.606;2023-06-19T09:23:43;2.70;;;2.30;;
10410;SDS011;5251;52.112;8.606;2023-06-19T09:26:09;2.45;;;2.25;;
10410;SDS011;5251;52.112;8.606;2023-06-19T09:28:39;2.75;;;2.55;;
10410;SDS011;5251;52.112;8.606;2023-06-19T09:31:07;2.80;;;2.60;;
10410;SDS011;5251;52.112;8.606;2023-06-19T09:33:33;3.22;;;2.65;;
10410;SDS011;5251;52.112;8.606;2023-06-19T09:36:00;2.60;;;2.40;;
10410;SDS011;5251;52.112;8.606;2023-06-19T09:38:27;2.45;;;2.25;;
10410;SDS011;5251;52.112;8.606;2023-06-19T09:40:55;2.53;;;2.33;;
10410;SDS011;5251;52.112;8.606;2023-06-19T09:43:25;2.85;;;2.60;;
10410;SDS011;5251;52.112;8.606;2023-06-19T09:45:55;2.47;;;2.28;;
10410;SDS011;5251;52.112;8.606;2023-06-19T09:48:22;2.22;;;2.00;;
10410;SDS011;5251;52.112;8.606;2023-06-19T09:50:54;3.47;;;2.60;;
10410;SDS011;5251;52.112;8.606;2023-06-19T09:53:24;2.83;;;2.25;;
10410;SDS011;5251;52.112;8.606;2023-06-19T09:55:50;2.25;;;2.10;;
10410;SDS011;5251;52.112;8.606;2023-06-19T09:58:17;2.42;;;2.20;;
10410;SDS011;5251;52.112;8.606;2023-06-19T10:00:45;2.30;;;2.17;;
10410;SDS011;5251;52.112;8.606;2023-06-19T10:03:12;2.92;;;2.03;;
10410;SDS011;5251;52.112;8.606;2023-06-19T10:05:39;2.30;;;2.10;;
10410;SDS011;5251;52.112;8.606;2023-06-19T10:08:05;2.08;;;1.98;;
10410;SDS011;5251;52.112;8.606;2023-06-19T10:10:31;2.30;;;1.70;;
10410;SDS011;5251;52.112;8.606;2023-06-19T10:12:59;1.88;;;1.77;;
10410;SDS011;5251;52.112;8.606;2023-06-19T10:15:39;2.30;;;1.90;;
10410;SDS011;5251;52.112;8.606;2023-06-19T10:18:13;1.70;;;1.60;;
10410;SDS011;5251;52.112;8.606;2023-06-19T10:20:44;1.65;;;1.55;;
10410;SDS011;5251;52.112;8.606;2023-06-19T10:23:12;1.58;;;1.48;;
10410;SDS011;5251;52.112;8.606;2023-06-19T10:25:55;2.20;;;2.00;;
10410;SDS011;5251;52.112;8.606;2023-06-19T10:30:56;2.28;;;2.05;;
10410;SDS011;5251;52.112;8.606;2023-06-19T10:33:23;1.90;;;1.80;;
10410;SDS011;5251;52.112;8.606;2023-06-19T10:35:50;2.20;;;2.10;;
10410;SDS011;5251;52.112;8.606;2023-06-19T10:38:16;2.47;;;2.28;;
10410;SDS011;5251;52.112;8.606;2023-06-19T10:40:43;2.40;;;2.20;;
10410;SDS011;5251;52.112;8.606;2023-06-19T10:43:10;2.60;;;2.40;;
10410;SDS011;5251;52.112;8.606;2023-06-19T10:45:36;4.05;;;2.42;;
10410;SDS011;5251;52.112;8.606;2023-06-19T10:48:02;2.90;;;2.45;;
10410;SDS011;5251;52.112;8.606;2023-06-19T10:50:29;2.88;;;2.20;;
10410;SDS011;5251;52.112;8.606;2023-06-19T10:52:58;2.60;;;2.40;;
10410;SDS011;5251;52.112;8.606;2023-06-19T10:55:24;3.60;;;2.28;;
10410;SDS011;5251;52.112;8.606;2023-06-19T10:57:49;2.95;;;2.33;;
10410;SDS011;5251;52.112;8.606;2023-06-19T11:00:28;2.40;;;2.20;;
10410;SDS011;5251;52.112;8.606;2023-06-19T11:02:55;2.83;;;2.50;;
10410;SDS011;5251;52.112;8.606;2023-06-19T11:05:22;2.22;;;2.13;;
10410;SDS011;5251;52.112;8.606;2023-06-19T11:07:53;2.60;;;2.38;;
10410;SDS011;5251;52.112;8.606;2023-06-19T11:10:20;2.42;;;2.20;;
10410;SDS011;5251;52.112;8.606;2023-06-19T11:12:47;2.53;;;2.30;;
10410;SDS011;5251;52.112;8.606;2023-06-19T11:15:13;2.13;;;2.03;;
10410;SDS011;5251;52.112;8.606;2023-06-19T11:17:39;2.45;;;2.30;;
10410;SDS011;5251;52.112;8.606;2023-06-19T11:20:09;2.40;;;2.20;;
10410;SDS011;5251;52.112;8.606;2023-06-19T11:22:39;3.05;;;2.50;;
10410;SDS011;5251;52.112;8.606;2023-06-19T11:25:06;2.92;;;2.63;;
10410;SDS011;5251;52.112;8.606;2023-06-19T11:27:33;5.43;;;3.30;;
10410;SDS011;5251;52.112;8.606;2023-06-19T11:30:01;4.95;;;3.40;;
10410;SDS011;5251;52.112;8.606;2023-06-19T11:32:32;3.30;;;3.10;;
10410;SDS011;5251;52.112;8.606;2023-06-19T11:35:04;3.00;;;2.80;;
10410;SDS011;5251;52.112;8.606;2023-06-19T11:37:34;3.33;;;3.13;;
10410;SDS011;5251;52.112;8.606;2023-06-19T11:40:00;3.33;;;3.08;;
10410;SDS011;5251;52.112;8.606;2023-06-19T11:42:28;3.00;;;2.80;;
10410;SDS011;5251;52.112;8.606;2023-06-19T11:45:01;2.95;;;2.70;;
10410;SDS011;5251;52.112;8.606;2023-06-19T11:47:30;3.17;;;2.88;;
10410;SDS011;5251;52.112;8.606;2023-06-19T11:49:56;2.70;;;2.50;;
10410;SDS011;5251;52.112;8.606;2023-06-19T11:52:22;2.75;;;2.20;;
10410;SDS011;5251;52.112;8.606;2023-06-19T11:54:48;2.60;;;2.40;;
10410;SDS011;5251;52.112;8.606;2023-06-19T11:57:13;2.10;;;1.90;;
10410;SDS011;5251;52.112;8.606;2023-06-19T11:59:39;2.42;;;2.22;;
10410;SDS011;5251;52.112;8.606;2023-06-19T12:02:06;2.10;;;2.00;;
10410;SDS011;5251;52.112;8.606;2023-06-19T12:04:32;2.22;;;2.03;;
10410;SDS011;5251;52.112;8.606;2023-06-19T12:06:58;2.30;;;2.10;;
10410;SDS011;5251;52.112;8.606;2023-06-19T12:09:24;2.50;;;2.30;;
10410;SDS011;5251;52.112;8.606;2023-06-19T12:11:49;2.60;;;2.40;;
10410;SDS011;5251;52.112;8.606;2023-06-19T12:14:15;3.47;;;2.70;;
10410;SDS011;5251;52.112;8.606;2023-06-19T12:16:41;3.00;;;2.80;;
10410;SDS011;5251;52.112;8.606;2023-06-19T12:19:07;2.72;;;2.40;;
10410;SDS011;5251;52.112;8.606;2023-06-19T12:21:32;2.80;;;2.60;;
10410;SDS011;5251;52.112;8.606;2023-06-19T12:23:58;3.30;;;2.60;;
10410;SDS011;5251;52.112;8.606;2023-06-19T12:26:23;2.60;;;2.38;;
10410;SDS011;5251;52.112;8.606;2023-06-19T12:28:50;2.40;;;2.30;;
10410;SDS011;5251;52.112;8.606;2023-06-19T12:31:17;2.85;;;2.65;;
10410;SDS011;5251;52.112;8.606;2023-06-19T12:33:43;2.95;;;2.75;;
10410;SDS011;5251;52.112;8.606;2023-06-19T12:36:13;2.28;;;2.17;;
10410;SDS011;5251;52.112;8.606;2023-06-19T12:38:39;2.90;;;2.70;;
10410;SDS011;5251;52.112;8.606;2023-06-19T12:41:05;2.80;;;2.60;;
10410;SDS011;5251;52.112;8.606;2023-06-19T12:43:32;3.60;;;2.60;;
10410;SDS011;5251;52.112;8.606;2023-06-19T12:45:57;2.78;;;2.30;;
10410;SDS011;5251;52.112;8.606;2023-06-19T12:48:24;2.33;;;2.22;;
10410;SDS011;5251;52.112;8.606;2023-06-19T12:50:50;2.60;;;2.40;;
10410;SDS011;5251;52.112;8.606;2023-06-19T12:53:16;2.17;;;2.08;;
10410;SDS011;5251;52.112;8.606;2023-06-19T12:55:41;2.65;;;2.10;;
10410;SDS011;5251;52.112;8.606;2023-06-19T12:58:07;2.30;;;2.10;;
10410;SDS011;5251;52.112;8.606;2023-06-19T13:00:33;2.45;;;2.08;;
10410;SDS011;5251;52.112;8.606;2023-06-19T13:02:59;3.35;;;2.10;;
10410;SDS011;5251;52.112;8.606;2023-06-19T13:05:25;2.28;;;2.08;;
10410;SDS011;5251;52.112;8.606;2023-06-19T13:07:50;2.08;;;1.98;;
10410;SDS011;5251;52.112;8.606;2023-06-19T13:10:16;2.13;;;1.92;;
10410;SDS011;5251;52.112;8.606;2023-06-19T13:12:41;2.50;;;2.30;;
10410;SDS011;5251;52.112;8.606;2023-06-19T13:15:07;2.22;;;2.05;;
10410;SDS011;5251;52.112;8.606;2023-06-19T13:17:33;2.10;;;1.90;;
10410;SDS011;5251;52.112;8.606;2023-06-19T13:19:59;2.53;;;2.33;;
10410;SDS011;5251;52.112;8.606;2023-06-19T13:22:24;2.45;;;2.15;;
10410;SDS011;5251;52.112;8.606;2023-06-19T13:24:50;2.47;;;2.28;;
10410;SDS011;5251;52.112;8.606;2023-06-19T13:27:16;2.30;;;2.10;;
10410;SDS011;5251;52.112;8.606;2023-06-19T13:29:42;2.40;;;2.22;;
10410;SDS011;5251;52.112;8.606;2023-06-19T13:32:08;2.65;;;2.15;;
10410;SDS011;5251;52.112;8.606;2023-06-19T13:34:34;2.17;;;1.95;;
10410;SDS011;5251;52.112;8.606;2023-06-19T13:37:00;4.43;;;2.30;;
10410;SDS011;5251;52.112;8.606;2023-06-19T13:39:25;2.42;;;2.20;;
10410;SDS011;5251;52.112;8.606;2023-06-19T13:41:51;2.67;;;2.47;;
10410;SDS011;5251;52.112;8.606;2023-06-19T13:44:17;2.42;;;2.22;;
10410;SDS011;5251;52.112;8.606;2023-06-19T13:46:43;2.13;;;2.03;;
10410;SDS011;5251;52.112;8.606;2023-06-19T13:49:09;2.50;;;2.10;;
10410;SDS011;5251;52.112;8.606;2023-06-19T13:51:36;2.30;;;2.00;;
10410;SDS011;5251;52.112;8.606;2023-06-19T13:54:02;2.45;;;2.13;;
10410;SDS011;5251;52.112;8.606;2023-06-19T13:56:29;2.25;;;2.05;;
10410;SDS011;5251;52.112;8.606;2023-06-19T13:58:57;2.33;;;2.13;;
10410;SDS011;5251;52.112;8.606;2023-06-19T14:01:23;2.50;;;2.30;;
10410;SDS011;5251;52.112;8.606;2023-06-19T14:03:50;2.67;;;2.13;;
10410;SDS011;5251;52.112;8.606;2023-06-19T14:06:16;2.40;;;2.20;;
10410;SDS011;5251;52.112;8.606;2023-06-19T14:08:42;2.35;;;2.15;;
10410;SDS011;5251;52.112;8.606;2023-06-19T14:11:08;2.22;;;1.90;;
10410;SDS011;5251;52.112;8.606;2023-06-19T14:13:33;2.53;;;2.30;;
10410;SDS011;5251;52.112;8.606;2023-06-19T14:15:59;2.83;;;2.20;;
10410;SDS011;5251;52.112;8.606;2023-06-19T14:18:24;2.28;;;2.13;;
10410;SDS011;5251;52.112;8.606;2023-06-19T14:20:50;2.10;;;2.00;;
10410;SDS011;5251;52.112;8.606;2023-06-19T14:23:16;2.90;;;2.17;;
10410;SDS011;5251;52.112;8.606;2023-06-19T14:25:41;2.42;;;2.22;;
10410;SDS011;5251;52.112;8.606;2023-06-19T14:28:07;2.22;;;2.13;;
10410;SDS011;5251;52.112;8.606;2023-06-19T14:30:33;2.97;;;2.30;;
10410;SDS011;5251;52.112;8.606;2023-06-19T14:32:58;2.30;;;2.10;;
10410;SDS011;5251;52.112;8.606;2023-06-19T14:35:24;2.28;;;2.10;;
10410;SDS011;5251;52.112;8.606;2023-06-19T14:37:49;2.55;;;2.10;;
10410;SDS011;5251;52.112;8.606;2023-06-19T14:40:15;2.67;;;2.45;;
10410;SDS011;5251;52.112;8.606;2023-06-19T14:42:40;3.50;;;2.55;;
10410;SDS011;5251;52.112;8.606;2023-06-19T14:45:06;3.00;;;2.60;;
10410;SDS011;5251;52.112;8.606;2023-06-19T14:47:32;2.70;;;2.50;;
10410;SDS011;5251;52.112;8.606;2023-06-19T14:49:58;2.55;;;2.35;;
10410;SDS011;5251;52.112;8.606;2023-06-19T14:52:24;3.40;;;2.60;;
10410;SDS011;5251;52.112;8.606;2023-06-19T14:54:49;3.05;;;2.75;;
10410;SDS011;5251;52.112;8.606;2023-06-19T14:57:15;2.80;;;2.60;;
10410;SDS011;5251;52.112;8.606;2023-06-19T14:59:40;4.15;;;2.83;;
10410;SDS011;5251;52.112;8.606;2023-06-19T15:02:06;3.40;;;2.53;;
10410;SDS011;5251;52.112;8.606;2023-06-19T15:04:32;2.80;;;2.50;;